Aeroporto :
LOGIN :

Iscrizione | Disclaimer

   EN    FR    IT 

 










Sommario :    VFR   VFR Marginale   IFR   IFR Intensivo   IFR Molto Intensivo
Visibilità : 
Base nubi : 
>= 8 km
>= 3000ft
5 / 8 km
1000 / 3000 ft
1500m / 5 km
500 / 1000 ft
800 / 1500m
200 / 500 ft
< 800m
< 200 ft
Simboli :   Temporali  Nebbia  Neve Forte  Precipitazioni Forti  Vento > 20 kt
SIGMETs :   Varie  Temporali  Ghiacco  Turbolenza  Onda orograficha  Ceneri Vulcaniche






- Altitudine del aeroporto : 913 ft


LFSX - Luxeuil

ULTIMO METAR :
  • 021230Z AUTO 28010KT 9999 BKN046 OVC056 22/13 Q1015

METARs OBSOLETI :
  • 021200Z AUTO 27008KT 240V320 9999 BKN044 BKN056 22/13 Q1015
  • 021130Z AUTO 25008KT 210V280 9999 ////// 22/15 Q1015
  • 021110Z AUTO 22009KT 150V260 9999 // ////// 21/16 Q1015
  • 021100Z AUTO 22007KT 180V250 9999 SCT031 BKN037 BKN047 ///// Q1015
  • 021030Z AUTO 24009KT 220V280 9999 FEW033 BKN042 OVC048 ///// Q1015
  • 021000Z AUTO 26004KT 230V300 9999 FEW031 BKN037 OVC046 19/15 Q1015

TAF TAF LFSX
Valido dal 02 a 09 ore il 03 a 09 ore UTC


020800Z 0209/0309 25005KT 9999 BKN030
PROB40 0209/0212 3000 SHRA BKN020TCU
TEMPO 0209/0221 25010G20KT



MetMap, La meteo Aeronautica in un colpo d'occhio ! - Copyright ORBIFLY Dicembre 2007 - Disclaimer

ORBIFLY MET'MAP TEAM :

Programmazione e sviluppo : Alexandra Zaïnal
Concezione : Baudouin d'Aumeries
Aiuto per la programmazione : Marc-Olivier Méhu
Supporto tecnico e logistico : Manuel Goepfert
Aiuto per la traduzione : Arnaldo La Scala

Contatto : metmap@orbifly.com




FONTI E CREDITI :

   NOAA